createdAt,value
2018-11-22T12:16:05.401Z,4.20
2018-11-22T12:18:39.469Z,4.20
2018-11-22T12:21:09.417Z,4.30
2018-11-22T12:23:40.333Z,4.40
2018-11-22T12:26:12.201Z,4.40
2018-11-22T12:28:42.637Z,4.50
2018-11-22T12:31:15.889Z,4.50
2018-11-22T12:33:54.189Z,4.60
2018-11-22T12:36:29.169Z,4.60
2018-11-22T12:38:59.949Z,4.60
2018-11-22T12:41:29.805Z,4.60
2018-11-22T12:43:59.717Z,4.60
2018-11-22T12:46:33.932Z,4.60
2018-11-22T12:49:05.285Z,4.60
2018-11-22T12:51:36.124Z,4.60
2018-11-22T12:54:06.009Z,4.50
2018-11-22T12:56:41.793Z,4.50
2018-11-22T12:59:15.141Z,4.40
2018-11-22T13:01:44.965Z,4.30
2018-11-22T13:04:14.765Z,4.20
2018-11-22T13:06:48.861Z,4.20
2018-11-22T13:09:19.717Z,4.20
2018-11-22T13:11:50.518Z,4.30
2018-11-22T13:14:26.949Z,4.30
2018-11-22T13:16:56.877Z,4.30
2018-11-22T13:19:29.801Z,4.20
2018-11-22T13:21:59.726Z,4.20
2018-11-22T13:24:30.565Z,4.20
2018-11-22T13:27:00.400Z,4.20
2018-11-22T13:29:33.369Z,4.20
2018-11-22T13:32:04.212Z,4.10
2018-11-22T13:34:36.113Z,4.10
2018-11-22T13:37:06.022Z,4.00
2018-11-22T13:39:42.441Z,3.90
2018-11-22T13:42:13.233Z,3.80
2018-11-22T13:44:43.021Z,3.80
2018-11-22T13:47:18.949Z,3.80
2018-11-22T13:49:56.529Z,3.80
2018-11-22T13:52:37.250Z,3.80
2018-11-22T13:55:04.494Z,3.90
2018-11-22T13:57:34.746Z,3.90
2018-11-22T14:00:11.838Z,3.90
2018-11-22T14:02:42.762Z,3.90
2018-11-22T14:05:18.366Z,3.80
2018-11-22T14:07:49.188Z,3.80
2018-11-22T14:10:21.514Z,3.80
2018-11-22T14:12:52.419Z,3.70
2018-11-22T14:15:39.134Z,3.70
2018-11-22T14:18:16.504Z,3.70
2018-11-22T14:20:46.402Z,3.60
2018-11-22T14:23:21.621Z,3.60
2018-11-22T14:25:52.450Z,3.50
2018-11-22T14:28:24.354Z,3.50
2018-11-22T14:30:57.294Z,3.40
2018-11-22T14:33:27.126Z,3.30
2018-11-22T14:35:57.993Z,3.30
2018-11-22T14:38:27.894Z,3.20
2018-11-22T14:40:57.902Z,3.20
2018-11-22T14:43:29.126Z,3.20
2018-11-22T14:46:03.517Z,3.20
2018-11-22T14:48:38.866Z,3.20
2018-11-22T14:51:18.667Z,3.20
2018-11-22T14:53:50.681Z,3.10
2018-11-22T14:56:20.526Z,3.10
2018-11-22T14:58:53.558Z,3.10
2018-11-22T15:01:23.741Z,3.10
2018-11-22T15:03:53.538Z,3.10
2018-11-22T15:06:23.354Z,3.10
2018-11-22T15:08:53.853Z,3.00
2018-11-22T15:11:24.626Z,3.00
2018-11-22T15:13:58.422Z,3.00
2018-11-22T15:16:32.766Z,3.00
2018-11-22T15:19:03.674Z,3.00
2018-11-22T15:21:41.315Z,3.00
2018-11-22T15:24:11.084Z,3.00
2018-11-22T15:26:49.086Z,2.90
2018-11-22T15:29:20.845Z,2.90
2018-11-22T15:31:53.197Z,2.90
2018-11-22T15:34:32.694Z,2.90
2018-11-22T15:37:02.554Z,2.90
2018-11-22T15:39:33.326Z,2.90
2018-11-22T15:42:04.151Z,2.80
2018-11-22T15:44:37.750Z,2.80
2018-11-22T15:47:07.690Z,2.90
2018-11-22T15:49:40.654Z,2.90
2018-11-22T15:52:10.576Z,2.90
2018-11-22T15:54:42.382Z,2.90
2018-11-22T15:57:12.202Z,2.90
2018-11-22T15:59:45.882Z,2.90
2018-11-22T16:02:17.783Z,2.90
2018-11-22T16:04:51.306Z,2.90
2018-11-22T16:07:23.302Z,2.90
2018-11-22T16:09:55.081Z,2.90
2018-11-22T16:12:26.970Z,2.90
2018-11-22T16:15:02.214Z,2.90
2018-11-22T16:17:32.105Z,2.80
2018-11-22T16:20:02.946Z,2.80
2018-11-22T16:22:32.726Z,2.80
2018-11-22T16:25:03.549Z,2.80
2018-11-22T16:27:33.409Z,2.80
2018-11-22T16:30:05.229Z,2.80
2018-11-22T16:32:38.946Z,2.80
2018-11-22T16:35:13.966Z,2.80
2018-11-22T16:37:47.698Z,2.80
2018-11-22T16:40:18.799Z,2.80
2018-11-22T16:43:00.577Z,2.70
2018-11-22T16:45:37.079Z,2.70
2018-11-22T16:48:13.533Z,2.70
2018-11-22T16:50:46.593Z,2.70
2018-11-22T16:53:21.900Z,2.70
2018-11-22T16:55:54.313Z,2.70
2018-11-22T16:58:27.344Z,2.70
2018-11-22T17:01:00.453Z,2.70
2018-11-22T17:03:39.913Z,2.70
2018-11-22T17:06:10.737Z,2.70
2018-11-22T17:08:41.553Z,2.70
2018-11-22T17:11:15.187Z,2.70
2018-11-22T17:13:45.628Z,2.70
2018-11-22T17:16:20.021Z,2.70
2018-11-22T17:18:50.847Z,2.70
2018-11-22T17:21:20.761Z,2.70
2018-11-22T17:23:53.628Z,2.80
2018-11-22T17:26:23.473Z,2.80
2018-11-22T17:28:53.380Z,2.80
2018-11-22T17:31:23.381Z,2.80
2018-11-22T17:33:54.132Z,2.80
2018-11-22T17:36:24.144Z,2.80
2018-11-22T17:38:59.021Z,2.80
2018-11-22T17:41:29.929Z,2.80
2018-11-22T17:43:59.949Z,2.80
2018-11-22T17:46:30.776Z,2.80
2018-11-22T17:49:00.709Z,2.80
2018-11-22T17:51:33.772Z,2.90
2018-11-22T17:54:03.933Z,2.90
2018-11-22T17:56:37.280Z,2.80
2018-11-22T17:59:07.194Z,2.80
2018-11-22T18:01:37.153Z,2.80
2018-11-22T18:04:10.686Z,2.70
2018-11-22T18:06:41.505Z,2.70
2018-11-22T18:09:11.709Z,2.60
2018-11-22T18:11:42.573Z,2.60
2018-11-22T18:14:16.484Z,2.60
2018-11-22T18:16:46.301Z,2.60
2018-11-22T18:19:18.241Z,2.60
2018-11-22T18:21:49.132Z,2.60
2018-11-22T18:24:20.969Z,2.60
2018-11-22T18:26:51.825Z,2.50
2018-11-22T18:29:21.645Z,2.40
2018-11-22T18:31:51.533Z,2.30
2018-11-22T18:34:26.468Z,2.30
2018-11-22T18:36:56.341Z,2.30
2018-11-22T18:39:27.120Z,2.20
2018-11-22T18:41:57.156Z,2.30
2018-11-22T18:44:33.884Z,2.20
2018-11-22T18:47:03.713Z,2.20
2018-11-22T18:49:33.689Z,2.20
2018-11-22T18:52:03.545Z,2.20
2018-11-22T18:54:33.417Z,2.20
2018-11-22T18:57:04.585Z,2.20
2018-11-22T18:59:35.437Z,2.10
2018-11-22T19:02:05.904Z,2.00
2018-11-22T19:04:35.797Z,1.90
2018-11-22T19:07:07.653Z,1.80
2018-11-22T19:09:41.733Z,1.70
2018-11-22T19:12:18.291Z,1.70
2018-11-22T19:14:50.185Z,1.70
2018-11-22T19:17:20.101Z,1.70
2018-11-22T19:19:50.053Z,1.70
2018-11-22T19:22:21.472Z,1.80
2018-11-22T19:24:52.296Z,1.80
2018-11-22T19:27:23.129Z,1.70
2018-11-22T19:29:53.154Z,1.70
2018-11-22T19:32:24.934Z,1.60
2018-11-22T19:35:00.729Z,1.60
2018-11-22T19:37:31.549Z,1.60
2018-11-22T19:40:03.625Z,1.60
2018-11-22T19:42:36.705Z,1.60
2018-11-22T19:45:09.201Z,1.50
2018-11-22T19:47:39.065Z,1.50
2018-11-22T19:50:13.522Z,1.50
2018-11-22T19:52:45.135Z,1.50
2018-11-22T19:55:18.645Z,1.50
2018-11-22T19:57:51.095Z,1.40
2018-11-22T20:00:22.675Z,1.40
2018-11-22T20:02:54.331Z,1.40
2018-11-22T20:05:26.089Z,1.50
2018-11-22T20:08:00.412Z,1.40
2018-11-22T20:10:35.441Z,1.40
2018-11-22T20:13:07.313Z,1.40
2018-11-22T20:15:41.937Z,1.40
2018-11-22T20:18:12.437Z,1.40
2018-11-22T20:20:49.968Z,1.40
2018-11-22T20:23:21.960Z,1.50
2018-11-22T20:26:01.025Z,1.50
2018-11-22T20:28:48.237Z,1.50
2018-11-22T20:31:18.117Z,1.50
2018-11-22T20:33:49.078Z,1.60
2018-11-22T20:36:20.929Z,1.60
2018-11-22T20:38:50.797Z,1.60
2018-11-22T20:41:23.821Z,1.60
2018-11-22T20:43:53.737Z,1.60
2018-11-22T20:46:23.629Z,1.60
2018-11-22T20:48:57.245Z,1.60
2018-11-22T20:51:36.613Z,1.60
2018-11-22T20:54:16.305Z,1.50
2018-11-22T20:56:49.621Z,1.50
2018-11-22T20:59:21.461Z,1.50
2018-11-22T21:01:56.762Z,1.50
2018-11-22T21:04:26.564Z,1.50
2018-11-22T21:06:58.405Z,1.50
2018-11-22T21:09:32.192Z,1.50
2018-11-22T21:12:02.105Z,1.50
2018-11-22T21:14:39.525Z,1.50
2018-11-22T21:17:12.838Z,1.50
2018-11-22T21:19:45.785Z,1.50
2018-11-22T21:22:16.821Z,1.50
2018-11-22T21:24:47.685Z,1.50
2018-11-22T21:27:24.070Z,1.40
2018-11-22T21:29:55.985Z,1.40
2018-11-22T21:32:25.757Z,1.40
2018-11-22T21:34:56.633Z,1.40
2018-11-22T21:37:29.849Z,1.40
2018-11-22T21:39:59.806Z,1.40
2018-11-22T21:42:31.377Z,1.40
2018-11-22T21:45:02.153Z,1.40
2018-11-22T21:47:33.985Z,1.40
2018-11-22T21:50:04.142Z,1.40
2018-11-22T21:52:37.557Z,1.40
2018-11-22T21:55:10.787Z,1.40
2018-11-22T21:57:41.462Z,1.40
2018-11-22T22:00:19.382Z,1.50
2018-11-22T22:02:52.961Z,1.50
2018-11-22T22:05:29.593Z,1.50
2018-11-22T22:08:05.746Z,1.50
2018-11-22T22:10:37.610Z,1.50
2018-11-22T22:13:07.524Z,1.50
2018-11-22T22:15:37.858Z,1.50
2018-11-22T22:18:09.231Z,1.50
2018-11-22T22:20:40.084Z,1.50
2018-11-22T22:23:13.576Z,1.50
2018-11-22T22:25:53.870Z,1.50
2018-11-22T22:28:23.792Z,1.50
2018-11-22T22:30:53.958Z,1.50
2018-11-22T22:33:23.833Z,1.50
2018-11-22T22:35:54.626Z,1.50
2018-11-22T22:38:24.482Z,1.50
2018-11-22T22:40:54.414Z,1.50
2018-11-22T22:43:24.310Z,1.50
2018-11-22T22:45:57.110Z,1.50
2018-11-22T22:48:28.012Z,1.40
2018-11-22T22:50:58.906Z,1.40
2018-11-22T22:53:29.757Z,1.50
2018-11-22T22:56:00.698Z,1.40
2018-11-22T22:58:30.566Z,1.40
2018-11-22T23:01:02.885Z,1.50
2018-11-22T23:03:32.773Z,1.50
2018-11-22T23:06:04.565Z,1.50
2018-11-22T23:08:34.777Z,1.50
2018-11-22T23:11:04.678Z,1.50
2018-11-22T23:13:35.366Z,1.40
2018-11-22T23:16:05.278Z,1.40
2018-11-22T23:18:36.098Z,1.50
2018-11-22T23:21:06.090Z,1.50
2018-11-22T23:23:35.938Z,1.50
2018-11-22T23:26:06.046Z,1.50
2018-11-22T23:28:35.862Z,1.40
2018-11-22T23:31:06.354Z,1.40
2018-11-22T23:33:36.191Z,1.40
2018-11-22T23:36:06.146Z,1.40
2018-11-22T23:38:37.093Z,1.40
2018-11-22T23:41:06.965Z,1.40
2018-11-22T23:43:36.794Z,1.40
2018-11-22T23:46:06.875Z,1.40
2018-11-22T23:48:36.674Z,1.40
2018-11-22T23:51:06.538Z,1.40
2018-11-22T23:53:36.482Z,1.40
2018-11-22T23:56:07.386Z,1.40
2018-11-22T23:58:37.197Z,1.40
